Terminal Aerodrome Forecast
Issued by NWS

Home | Current Version | Previous Version | Text Only | Print | Product List | Glossary On
Versions: 1 2 3 4 5 6 7 8 9 10 11 12 13 14 15 16 17 18 19 20 21 22 23
000
FTUS46 KOTX 231333 AAA
TAFCOE
TAF AMD
KCOE 231333Z 2314/2412 21010G20KT P6SM VCSH BKN060 OVC080
      WS020/23040KT
     FM232000 23020G30KT P6SM VCSH OVC050
     FM232300 24023G39KT P6SM VCSH OVC050
     FM240300 25020G28KT P6SM FEW060 SCT100
     FM240700 21007KT P6SM OVC250=

USA.gov is the U.S. government's official web portal to all federal, state and local government web resources and services.